sensor_id;sensor_type;location;lat;lon;timestamp;P1;durP1;ratioP1;P2;durP2;ratioP2
17472;SDS011;8853;52.552;13.356;2022-07-11T00:00:12;6.22;;;4.33;;
17472;SDS011;8853;52.552;13.356;2022-07-11T00:02:40;6.80;;;4.60;;
17472;SDS011;8853;52.552;13.356;2022-07-11T00:05:09;6.08;;;4.33;;
17472;SDS011;8853;52.552;13.356;2022-07-11T00:07:37;6.87;;;4.20;;
17472;SDS011;8853;52.552;13.356;2022-07-11T00:10:07;5.87;;;3.85;;
17472;SDS011;8853;52.552;13.356;2022-07-11T00:12:36;6.45;;;4.50;;
17472;SDS011;8853;52.552;13.356;2022-07-11T00:15:05;6.83;;;4.10;;
17472;SDS011;8853;52.552;13.356;2022-07-11T00:17:33;6.72;;;4.17;;
17472;SDS011;8853;52.552;13.356;2022-07-11T00:20:02;5.35;;;3.92;;
17472;SDS011;8853;52.552;13.356;2022-07-11T00:22:31;6.47;;;4.33;;
17472;SDS011;8853;52.552;13.356;2022-07-11T00:25:00;6.65;;;4.05;;
17472;SDS011;8853;52.552;13.356;2022-07-11T00:27:28;5.72;;;4.08;;
17472;SDS011;8853;52.552;13.356;2022-07-11T00:29:57;5.60;;;4.08;;
17472;SDS011;8853;52.552;13.356;2022-07-11T00:32:26;6.40;;;4.10;;
17472;SDS011;8853;52.552;13.356;2022-07-11T00:34:54;6.42;;;4.37;;
17472;SDS011;8853;52.552;13.356;2022-07-11T00:37:23;5.67;;;3.85;;
17472;SDS011;8853;52.552;13.356;2022-07-11T00:39:52;6.87;;;4.30;;
17472;SDS011;8853;52.552;13.356;2022-07-11T00:42:20;5.60;;;3.80;;
17472;SDS011;8853;52.552;13.356;2022-07-11T00:44:50;5.05;;;4.10;;
17472;SDS011;8853;52.552;13.356;2022-07-11T00:47:19;4.55;;;3.65;;
17472;SDS011;8853;52.552;13.356;2022-07-11T00:49:48;5.22;;;3.95;;
17472;SDS011;8853;52.552;13.356;2022-07-11T00:52:16;5.80;;;3.90;;
17472;SDS011;8853;52.552;13.356;2022-07-11T00:54:45;5.47;;;3.70;;
17472;SDS011;8853;52.552;13.356;2022-07-11T00:57:14;5.35;;;3.55;;
17472;SDS011;8853;52.552;13.356;2022-07-11T00:59:42;6.53;;;4.10;;
17472;SDS011;8853;52.552;13.356;2022-07-11T01:02:12;5.47;;;3.62;;
17472;SDS011;8853;52.552;13.356;2022-07-11T01:05:00;5.15;;;3.70;;
17472;SDS011;8853;52.552;13.356;2022-07-11T01:07:29;5.40;;;3.75;;
17472;SDS011;8853;52.552;13.356;2022-07-11T01:09:58;5.47;;;3.30;;
17472;SDS011;8853;52.552;13.356;2022-07-11T01:12:27;4.60;;;3.47;;
17472;SDS011;8853;52.552;13.356;2022-07-11T01:14:56;4.95;;;3.30;;
17472;SDS011;8853;52.552;13.356;2022-07-11T01:17:24;6.12;;;4.00;;
17472;SDS011;8853;52.552;13.356;2022-07-11T01:19:53;5.17;;;3.80;;
17472;SDS011;8853;52.552;13.356;2022-07-11T01:22:23;4.60;;;3.50;;
17472;SDS011;8853;52.552;13.356;2022-07-11T01:24:51;5.20;;;3.33;;
17472;SDS011;8853;52.552;13.356;2022-07-11T01:27:19;6.00;;;3.42;;
17472;SDS011;8853;52.552;13.356;2022-07-11T01:29:48;5.55;;;3.62;;
17472;SDS011;8853;52.552;13.356;2022-07-11T01:32:17;4.45;;;3.50;;
17472;SDS011;8853;52.552;13.356;2022-07-11T01:34:45;5.05;;;3.30;;
17472;SDS011;8853;52.552;13.356;2022-07-11T01:37:14;4.80;;;3.40;;
17472;SDS011;8853;52.552;13.356;2022-07-11T01:39:42;5.22;;;3.42;;
17472;SDS011;8853;52.552;13.356;2022-07-11T01:42:12;5.78;;;3.45;;
17472;SDS011;8853;52.552;13.356;2022-07-11T01:44:41;3.87;;;3.37;;
17472;SDS011;8853;52.552;13.356;2022-07-11T01:47:09;5.05;;;3.42;;
17472;SDS011;8853;52.552;13.356;2022-07-11T01:49:38;5.60;;;3.80;;
17472;SDS011;8853;52.552;13.356;2022-07-11T01:52:07;4.12;;;3.08;;
17472;SDS011;8853;52.552;13.356;2022-07-11T01:54:36;5.47;;;3.50;;
17472;SDS011;8853;52.552;13.356;2022-07-11T01:57:05;5.37;;;3.40;;
17472;SDS011;8853;52.552;13.356;2022-07-11T01:59:33;5.50;;;3.85;;
17472;SDS011;8853;52.552;13.356;2022-07-11T02:02:02;4.50;;;3.45;;
17472;SDS011;8853;52.552;13.356;2022-07-11T02:04:31;5.55;;;3.65;;
17472;SDS011;8853;52.552;13.356;2022-07-11T02:06:59;4.45;;;3.05;;
17472;SDS011;8853;52.552;13.356;2022-07-11T02:09:28;5.37;;;3.45;;
17472;SDS011;8853;52.552;13.356;2022-07-11T02:11:57;5.67;;;4.22;;
17472;SDS011;8853;52.552;13.356;2022-07-11T02:14:25;6.05;;;3.65;;
17472;SDS011;8853;52.552;13.356;2022-07-11T02:16:54;6.45;;;3.62;;
17472;SDS011;8853;52.552;13.356;2022-07-11T02:19:23;4.42;;;3.47;;
17472;SDS011;8853;52.552;13.356;2022-07-11T02:21:51;5.00;;;3.52;;
17472;SDS011;8853;52.552;13.356;2022-07-11T02:24:20;4.72;;;3.30;;
17472;SDS011;8853;52.552;13.356;2022-07-11T02:26:48;5.17;;;3.35;;
17472;SDS011;8853;52.552;13.356;2022-07-11T02:29:17;5.25;;;3.92;;
17472;SDS011;8853;52.552;13.356;2022-07-11T02:31:46;5.10;;;3.62;;
17472;SDS011;8853;52.552;13.356;2022-07-11T02:34:15;5.80;;;3.87;;
17472;SDS011;8853;52.552;13.356;2022-07-11T02:36:43;5.20;;;3.67;;
17472;SDS011;8853;52.552;13.356;2022-07-11T02:39:12;4.83;;;3.42;;
17472;SDS011;8853;52.552;13.356;2022-07-11T02:41:41;6.45;;;3.72;;
17472;SDS011;8853;52.552;13.356;2022-07-11T02:44:10;4.58;;;3.58;;
17472;SDS011;8853;52.552;13.356;2022-07-11T02:46:39;5.25;;;3.75;;
17472;SDS011;8853;52.552;13.356;2022-07-11T02:49:07;5.50;;;3.87;;
17472;SDS011;8853;52.552;13.356;2022-07-11T02:51:36;5.08;;;3.27;;
17472;SDS011;8853;52.552;13.356;2022-07-11T02:54:05;5.17;;;3.70;;
17472;SDS011;8853;52.552;13.356;2022-07-11T03:00:37;4.92;;;3.60;;
17472;SDS011;8853;52.552;13.356;2022-07-11T03:03:05;6.37;;;3.90;;
17472;SDS011;8853;52.552;13.356;2022-07-11T03:05:34;4.97;;;3.33;;
17472;SDS011;8853;52.552;13.356;2022-07-11T03:08:02;6.50;;;3.98;;
17472;SDS011;8853;52.552;13.356;2022-07-11T03:10:31;4.45;;;3.27;;
17472;SDS011;8853;52.552;13.356;2022-07-11T03:13:01;5.92;;;4.22;;
17472;SDS011;8853;52.552;13.356;2022-07-11T03:15:30;4.72;;;3.50;;
17472;SDS011;8853;52.552;13.356;2022-07-11T03:17:58;5.58;;;3.83;;
17472;SDS011;8853;52.552;13.356;2022-07-11T03:20:27;5.00;;;3.15;;
17472;SDS011;8853;52.552;13.356;2022-07-11T03:22:56;5.35;;;3.50;;
17472;SDS011;8853;52.552;13.356;2022-07-11T03:25:24;4.10;;;3.30;;
17472;SDS011;8853;52.552;13.356;2022-07-11T03:27:53;6.15;;;3.58;;
17472;SDS011;8853;52.552;13.356;2022-07-11T03:30:22;4.70;;;3.22;;
17472;SDS011;8853;52.552;13.356;2022-07-11T03:32:50;5.85;;;3.52;;
17472;SDS011;8853;52.552;13.356;2022-07-11T03:35:19;5.30;;;3.52;;
17472;SDS011;8853;52.552;13.356;2022-07-11T03:38:07;5.15;;;3.05;;
17472;SDS011;8853;52.552;13.356;2022-07-11T03:40:39;5.17;;;3.50;;
17472;SDS011;8853;52.552;13.356;2022-07-11T03:43:07;4.03;;;3.08;;
17472;SDS011;8853;52.552;13.356;2022-07-11T03:45:36;5.42;;;3.35;;
17472;SDS011;8853;52.552;13.356;2022-07-11T03:48:05;5.12;;;3.20;;
17472;SDS011;8853;52.552;13.356;2022-07-11T03:50:34;4.70;;;3.50;;
17472;SDS011;8853;52.552;13.356;2022-07-11T03:53:03;4.37;;;3.15;;
17472;SDS011;8853;52.552;13.356;2022-07-11T03:55:31;4.70;;;3.60;;
17472;SDS011;8853;52.552;13.356;2022-07-11T03:58:00;4.45;;;3.33;;
17472;SDS011;8853;52.552;13.356;2022-07-11T04:00:29;4.67;;;3.20;;
17472;SDS011;8853;52.552;13.356;2022-07-11T04:02:58;4.70;;;3.12;;
17472;SDS011;8853;52.552;13.356;2022-07-11T04:05:27;4.25;;;3.15;;
17472;SDS011;8853;52.552;13.356;2022-07-11T04:07:55;4.28;;;3.10;;
17472;SDS011;8853;52.552;13.356;2022-07-11T04:10:24;4.70;;;3.17;;
17472;SDS011;8853;52.552;13.356;2022-07-11T04:12:52;4.00;;;2.70;;
17472;SDS011;8853;52.552;13.356;2022-07-11T04:15:21;4.90;;;3.20;;
17472;SDS011;8853;52.552;13.356;2022-07-11T04:17:50;4.20;;;2.83;;
17472;SDS011;8853;52.552;13.356;2022-07-11T04:20:18;4.45;;;2.98;;
17472;SDS011;8853;52.552;13.356;2022-07-11T04:22:47;4.80;;;3.10;;
17472;SDS011;8853;52.552;13.356;2022-07-11T04:25:16;4.62;;;3.02;;
17472;SDS011;8853;52.552;13.356;2022-07-11T04:27:44;3.42;;;2.60;;
17472;SDS011;8853;52.552;13.356;2022-07-11T04:30:13;4.15;;;3.00;;
17472;SDS011;8853;52.552;13.356;2022-07-11T04:32:42;3.90;;;2.98;;
17472;SDS011;8853;52.552;13.356;2022-07-11T04:35:10;4.42;;;3.00;;
17472;SDS011;8853;52.552;13.356;2022-07-11T04:37:39;4.40;;;2.67;;
17472;SDS011;8853;52.552;13.356;2022-07-11T04:40:08;4.45;;;3.05;;
17472;SDS011;8853;52.552;13.356;2022-07-11T04:42:36;3.52;;;2.65;;
17472;SDS011;8853;52.552;13.356;2022-07-11T04:45:05;3.85;;;2.65;;
17472;SDS011;8853;52.552;13.356;2022-07-11T04:47:34;4.67;;;3.20;;
17472;SDS011;8853;52.552;13.356;2022-07-11T04:50:03;3.87;;;2.95;;
17472;SDS011;8853;52.552;13.356;2022-07-11T04:52:31;3.85;;;2.75;;
17472;SDS011;8853;52.552;13.356;2022-07-11T04:55:00;4.45;;;2.87;;
17472;SDS011;8853;52.552;13.356;2022-07-11T04:57:29;3.42;;;2.62;;
17472;SDS011;8853;52.552;13.356;2022-07-11T04:59:57;3.90;;;2.70;;
17472;SDS011;8853;52.552;13.356;2022-07-11T05:02:26;3.92;;;2.90;;
17472;SDS011;8853;52.552;13.356;2022-07-11T05:04:55;3.87;;;2.75;;
17472;SDS011;8853;52.552;13.356;2022-07-11T05:07:23;4.00;;;2.55;;
17472;SDS011;8853;52.552;13.356;2022-07-11T05:09:52;4.08;;;2.60;;
17472;SDS011;8853;52.552;13.356;2022-07-11T05:12:20;4.60;;;2.60;;
17472;SDS011;8853;52.552;13.356;2022-07-11T05:14:49;3.83;;;2.75;;
17472;SDS011;8853;52.552;13.356;2022-07-11T05:17:18;4.65;;;2.77;;
17472;SDS011;8853;52.552;13.356;2022-07-11T05:19:46;3.77;;;2.47;;
17472;SDS011;8853;52.552;13.356;2022-07-11T05:22:15;3.58;;;2.40;;
17472;SDS011;8853;52.552;13.356;2022-07-11T05:24:44;4.22;;;2.77;;
17472;SDS011;8853;52.552;13.356;2022-07-11T05:27:12;3.33;;;2.42;;
17472;SDS011;8853;52.552;13.356;2022-07-11T05:29:41;4.25;;;2.60;;
17472;SDS011;8853;52.552;13.356;2022-07-11T05:32:10;3.87;;;2.92;;
17472;SDS011;8853;52.552;13.356;2022-07-11T05:34:39;3.90;;;2.45;;
17472;SDS011;8853;52.552;13.356;2022-07-11T05:37:08;4.42;;;2.65;;
17472;SDS011;8853;52.552;13.356;2022-07-11T05:39:36;4.47;;;3.00;;
17472;SDS011;8853;52.552;13.356;2022-07-11T05:42:05;4.72;;;2.83;;
17472;SDS011;8853;52.552;13.356;2022-07-11T05:44:34;3.45;;;2.58;;
17472;SDS011;8853;52.552;13.356;2022-07-11T05:47:02;3.80;;;2.70;;
17472;SDS011;8853;52.552;13.356;2022-07-11T05:49:31;5.12;;;3.17;;
17472;SDS011;8853;52.552;13.356;2022-07-11T05:52:02;3.15;;;2.65;;
17472;SDS011;8853;52.552;13.356;2022-07-11T05:54:39;4.37;;;2.87;;
17472;SDS011;8853;52.552;13.356;2022-07-11T05:57:08;5.78;;;3.33;;
17472;SDS011;8853;52.552;13.356;2022-07-11T05:59:37;4.40;;;3.10;;
17472;SDS011;8853;52.552;13.356;2022-07-11T06:02:05;4.58;;;2.90;;
17472;SDS011;8853;52.552;13.356;2022-07-11T06:04:34;5.15;;;3.08;;
17472;SDS011;8853;52.552;13.356;2022-07-11T06:07:03;5.42;;;3.37;;
17472;SDS011;8853;52.552;13.356;2022-07-11T06:09:31;4.92;;;2.85;;
17472;SDS011;8853;52.552;13.356;2022-07-11T06:12:01;6.03;;;3.22;;
17472;SDS011;8853;52.552;13.356;2022-07-11T06:14:31;5.45;;;3.00;;
17472;SDS011;8853;52.552;13.356;2022-07-11T06:16:59;4.03;;;2.70;;
17472;SDS011;8853;52.552;13.356;2022-07-11T06:19:29;4.40;;;2.85;;
17472;SDS011;8853;52.552;13.356;2022-07-11T06:21:57;5.45;;;2.70;;
17472;SDS011;8853;52.552;13.356;2022-07-11T06:24:26;3.95;;;2.90;;
17472;SDS011;8853;52.552;13.356;2022-07-11T06:26:54;5.35;;;3.00;;
17472;SDS011;8853;52.552;13.356;2022-07-11T06:29:23;4.55;;;2.87;;
17472;SDS011;8853;52.552;13.356;2022-07-11T06:31:52;5.92;;;3.33;;
17472;SDS011;8853;52.552;13.356;2022-07-11T06:34:20;4.08;;;2.87;;
17472;SDS011;8853;52.552;13.356;2022-07-11T06:36:49;4.90;;;3.22;;
17472;SDS011;8853;52.552;13.356;2022-07-11T06:39:18;4.58;;;3.08;;
17472;SDS011;8853;52.552;13.356;2022-07-11T06:41:46;3.52;;;2.50;;
17472;SDS011;8853;52.552;13.356;2022-07-11T06:44:15;3.72;;;3.05;;
17472;SDS011;8853;52.552;13.356;2022-07-11T06:46:43;3.87;;;2.80;;
17472;SDS011;8853;52.552;13.356;2022-07-11T06:49:12;4.30;;;2.30;;
17472;SDS011;8853;52.552;13.356;2022-07-11T06:51:41;4.80;;;2.83;;
17472;SDS011;8853;52.552;13.356;2022-07-11T06:54:09;5.05;;;2.65;;
17472;SDS011;8853;52.552;13.356;2022-07-11T06:56:38;4.20;;;2.75;;
17472;SDS011;8853;52.552;13.356;2022-07-11T06:59:07;4.35;;;2.85;;
17472;SDS011;8853;52.552;13.356;2022-07-11T07:01:37;4.03;;;2.62;;
17472;SDS011;8853;52.552;13.356;2022-07-11T07:04:05;4.10;;;2.77;;
17472;SDS011;8853;52.552;13.356;2022-07-11T07:06:34;4.25;;;2.67;;
17472;SDS011;8853;52.552;13.356;2022-07-11T07:09:02;3.98;;;2.70;;
17472;SDS011;8853;52.552;13.356;2022-07-11T07:11:32;6.47;;;2.67;;
17472;SDS011;8853;52.552;13.356;2022-07-11T07:14:00;4.30;;;2.65;;
17472;SDS011;8853;52.552;13.356;2022-07-11T07:16:30;5.78;;;2.90;;
17472;SDS011;8853;52.552;13.356;2022-07-11T07:18:58;4.47;;;2.58;;
17472;SDS011;8853;52.552;13.356;2022-07-11T07:21:27;4.53;;;2.80;;
17472;SDS011;8853;52.552;13.356;2022-07-11T07:23:56;4.25;;;2.55;;
17472;SDS011;8853;52.552;13.356;2022-07-11T07:26:24;6.55;;;2.95;;
17472;SDS011;8853;52.552;13.356;2022-07-11T07:28:53;5.37;;;2.65;;
17472;SDS011;8853;52.552;13.356;2022-07-11T07:31:22;5.28;;;2.70;;
17472;SDS011;8853;52.552;13.356;2022-07-11T07:33:51;3.72;;;2.37;;
17472;SDS011;8853;52.552;13.356;2022-07-11T07:36:20;5.22;;;2.58;;
17472;SDS011;8853;52.552;13.356;2022-07-11T07:38:48;4.85;;;2.60;;
17472;SDS011;8853;52.552;13.356;2022-07-11T07:41:17;3.25;;;2.12;;
17472;SDS011;8853;52.552;13.356;2022-07-11T07:43:46;6.72;;;2.62;;
17472;SDS011;8853;52.552;13.356;2022-07-11T07:46:17;4.55;;;2.30;;
17472;SDS011;8853;52.552;13.356;2022-07-11T07:48:46;4.25;;;2.17;;
17472;SDS011;8853;52.552;13.356;2022-07-11T07:51:15;4.05;;;2.15;;
17472;SDS011;8853;52.552;13.356;2022-07-11T07:53:43;5.30;;;2.75;;
17472;SDS011;8853;52.552;13.356;2022-07-11T07:56:12;4.87;;;2.40;;
17472;SDS011;8853;52.552;13.356;2022-07-11T07:58:41;5.85;;;2.05;;
17472;SDS011;8853;52.552;13.356;2022-07-11T08:01:09;5.00;;;2.10;;
17472;SDS011;8853;52.552;13.356;2022-07-11T08:03:57;3.80;;;2.30;;
17472;SDS011;8853;52.552;13.356;2022-07-11T08:06:25;3.50;;;2.20;;
17472;SDS011;8853;52.552;13.356;2022-07-11T08:08:54;3.22;;;2.00;;
17472;SDS011;8853;52.552;13.356;2022-07-11T08:11:23;4.67;;;2.20;;
17472;SDS011;8853;52.552;13.356;2022-07-11T08:13:52;3.65;;;1.80;;
17472;SDS011;8853;52.552;13.356;2022-07-11T08:16:20;3.75;;;2.20;;
17472;SDS011;8853;52.552;13.356;2022-07-11T08:18:49;4.53;;;2.33;;
17472;SDS011;8853;52.552;13.356;2022-07-11T08:21:17;4.75;;;2.40;;
17472;SDS011;8853;52.552;13.356;2022-07-11T08:23:46;4.58;;;2.37;;
17472;SDS011;8853;52.552;13.356;2022-07-11T08:26:14;4.37;;;2.12;;
17472;SDS011;8853;52.552;13.356;2022-07-11T08:28:43;3.87;;;2.40;;
17472;SDS011;8853;52.552;13.356;2022-07-11T08:31:12;4.95;;;1.90;;
17472;SDS011;8853;52.552;13.356;2022-07-11T08:33:41;3.02;;;1.98;;
17472;SDS011;8853;52.552;13.356;2022-07-11T08:36:12;3.67;;;1.87;;
17472;SDS011;8853;52.552;13.356;2022-07-11T08:38:49;4.87;;;2.30;;
17472;SDS011;8853;52.552;13.356;2022-07-11T08:41:17;4.33;;;2.30;;
17472;SDS011;8853;52.552;13.356;2022-07-11T08:43:46;4.08;;;1.85;;
17472;SDS011;8853;52.552;13.356;2022-07-11T08:46:15;4.12;;;2.20;;
17472;SDS011;8853;52.552;13.356;2022-07-11T08:48:43;2.40;;;1.80;;
17472;SDS011;8853;52.552;13.356;2022-07-11T08:51:12;2.90;;;2.00;;
17472;SDS011;8853;52.552;13.356;2022-07-11T08:53:41;2.70;;;1.75;;
17472;SDS011;8853;52.552;13.356;2022-07-11T08:56:12;4.33;;;1.90;;
17472;SDS011;8853;52.552;13.356;2022-07-11T08:58:46;2.75;;;1.82;;
17472;SDS011;8853;52.552;13.356;2022-07-11T09:01:15;3.22;;;2.00;;
17472;SDS011;8853;52.552;13.356;2022-07-11T09:03:44;4.50;;;2.00;;
17472;SDS011;8853;52.552;13.356;2022-07-11T09:06:13;2.50;;;1.90;;
17472;SDS011;8853;52.552;13.356;2022-07-11T09:08:41;2.67;;;1.82;;
17472;SDS011;8853;52.552;13.356;2022-07-11T09:11:10;2.55;;;1.90;;
17472;SDS011;8853;52.552;13.356;2022-07-11T09:13:39;2.22;;;1.60;;
17472;SDS011;8853;52.552;13.356;2022-07-11T09:16:08;2.25;;;1.80;;
17472;SDS011;8853;52.552;13.356;2022-07-11T09:18:40;3.25;;;1.80;;
17472;SDS011;8853;52.552;13.356;2022-07-11T09:21:12;2.77;;;1.87;;
17472;SDS011;8853;52.552;13.356;2022-07-11T09:24:01;3.30;;;1.80;;
17472;SDS011;8853;52.552;13.356;2022-07-11T09:26:48;2.70;;;1.75;;
17472;SDS011;8853;52.552;13.356;2022-07-11T09:29:20;3.50;;;1.87;;
17472;SDS011;8853;52.552;13.356;2022-07-11T09:31:48;4.78;;;2.25;;
17472;SDS011;8853;52.552;13.356;2022-07-11T09:34:20;3.35;;;1.90;;
17472;SDS011;8853;52.552;13.356;2022-07-11T09:36:51;2.52;;;1.90;;
17472;SDS011;8853;52.552;13.356;2022-07-11T09:39:23;4.55;;;2.10;;
17472;SDS011;8853;52.552;13.356;2022-07-11T09:41:51;3.47;;;1.72;;
17472;SDS011;8853;52.552;13.356;2022-07-11T09:44:20;2.95;;;1.85;;
17472;SDS011;8853;52.552;13.356;2022-07-11T09:46:52;2.62;;;1.85;;
17472;SDS011;8853;52.552;13.356;2022-07-11T09:49:29;3.00;;;2.00;;
17472;SDS011;8853;52.552;13.356;2022-07-11T09:52:13;3.42;;;1.82;;
17472;SDS011;8853;52.552;13.356;2022-07-11T09:54:57;2.15;;;1.80;;
17472;SDS011;8853;52.552;13.356;2022-07-11T10:00:04;2.58;;;1.72;;
17472;SDS011;8853;52.552;13.356;2022-07-11T10:02:31;2.65;;;1.90;;
17472;SDS011;8853;52.552;13.356;2022-07-11T10:05:00;3.58;;;2.10;;
17472;SDS011;8853;52.552;13.356;2022-07-11T10:07:29;2.85;;;1.50;;
17472;SDS011;8853;52.552;13.356;2022-07-11T10:09:57;2.70;;;1.70;;
17472;SDS011;8853;52.552;13.356;2022-07-11T10:12:26;2.15;;;1.72;;
17472;SDS011;8853;52.552;13.356;2022-07-11T10:14:54;3.67;;;1.77;;
17472;SDS011;8853;52.552;13.356;2022-07-11T10:20:34;3.35;;;1.82;;
17472;SDS011;8853;52.552;13.356;2022-07-11T10:23:27;2.35;;;1.62;;
17472;SDS011;8853;52.552;13.356;2022-07-11T10:28:46;2.25;;;1.60;;
17472;SDS011;8853;52.552;13.356;2022-07-11T10:31:27;2.58;;;1.70;;
17472;SDS011;8853;52.552;13.356;2022-07-11T10:34:06;3.75;;;1.80;;
17472;SDS011;8853;52.552;13.356;2022-07-11T10:36:43;3.25;;;1.50;;
17472;SDS011;8853;52.552;13.356;2022-07-11T10:39:12;2.95;;;1.60;;
17472;SDS011;8853;52.552;13.356;2022-07-11T10:41:52;3.98;;;2.02;;
17472;SDS011;8853;52.552;13.356;2022-07-11T10:44:27;2.55;;;1.60;;
17472;SDS011;8853;52.552;13.356;2022-07-11T10:46:55;2.35;;;1.80;;
17472;SDS011;8853;52.552;13.356;2022-07-11T10:49:30;3.02;;;1.90;;
17472;SDS011;8853;52.552;13.356;2022-07-11T10:52:14;4.00;;;1.72;;
17472;SDS011;8853;52.552;13.356;2022-07-11T10:57:35;3.37;;;2.25;;
17472;SDS011;8853;52.552;13.356;2022-07-11T11:00:20;2.12;;;1.40;;
17472;SDS011;8853;52.552;13.356;2022-07-11T11:11:04;2.12;;;1.57;;
17472;SDS011;8853;52.552;13.356;2022-07-11T11:16:44;2.17;;;1.40;;
17472;SDS011;8853;52.552;13.356;2022-07-11T11:22:22;1.95;;;1.62;;
17472;SDS011;8853;52.552;13.356;2022-07-11T11:24:51;2.02;;;1.55;;
17472;SDS011;8853;52.552;13.356;2022-07-11T11:27:25;2.20;;;1.52;;
17472;SDS011;8853;52.552;13.356;2022-07-11T11:29:55;1.70;;;1.50;;
17472;SDS011;8853;52.552;13.356;2022-07-11T11:32:30;2.05;;;1.60;;
17472;SDS011;8853;52.552;13.356;2022-07-11T11:34:58;2.25;;;1.77;;
17472;SDS011;8853;52.552;13.356;2022-07-11T11:37:27;2.70;;;1.50;;
17472;SDS011;8853;52.552;13.356;2022-07-11T11:39:56;2.87;;;1.85;;
17472;SDS011;8853;52.552;13.356;2022-07-11T11:42:25;1.75;;;1.55;;
17472;SDS011;8853;52.552;13.356;2022-07-11T11:44:55;1.87;;;1.60;;
17472;SDS011;8853;52.552;13.356;2022-07-11T11:47:29;3.42;;;1.55;;
17472;SDS011;8853;52.552;13.356;2022-07-11T11:49:55;2.08;;;1.42;;
17472;SDS011;8853;52.552;13.356;2022-07-11T11:52:23;3.35;;;1.60;;
17472;SDS011;8853;52.552;13.356;2022-07-11T11:54:53;1.70;;;1.60;;
17472;SDS011;8853;52.552;13.356;2022-07-11T11:57:28;2.08;;;1.70;;
17472;SDS011;8853;52.552;13.356;2022-07-11T11:59:57;1.80;;;1.40;;
17472;SDS011;8853;52.552;13.356;2022-07-11T12:02:29;1.62;;;1.20;;
17472;SDS011;8853;52.552;13.356;2022-07-11T12:04:58;2.37;;;1.62;;
17472;SDS011;8853;52.552;13.356;2022-07-11T12:07:27;1.65;;;1.27;;
17472;SDS011;8853;52.552;13.356;2022-07-11T12:09:55;1.82;;;1.35;;
17472;SDS011;8853;52.552;13.356;2022-07-11T12:12:25;2.55;;;1.57;;
17472;SDS011;8853;52.552;13.356;2022-07-11T12:15:23;2.10;;;1.50;;
17472;SDS011;8853;52.552;13.356;2022-07-11T12:17:58;2.25;;;1.50;;
17472;SDS011;8853;52.552;13.356;2022-07-11T12:20:33;1.90;;;1.45;;
17472;SDS011;8853;52.552;13.356;2022-07-11T12:23:05;1.85;;;1.40;;
17472;SDS011;8853;52.552;13.356;2022-07-11T12:25:35;2.05;;;1.60;;
17472;SDS011;8853;52.552;13.356;2022-07-11T12:28:04;1.77;;;1.47;;
17472;SDS011;8853;52.552;13.356;2022-07-11T12:30:32;2.12;;;1.57;;
17472;SDS011;8853;52.552;13.356;2022-07-11T12:33:02;1.90;;;1.40;;
17472;SDS011;8853;52.552;13.356;2022-07-11T12:35:30;2.10;;;1.50;;
17472;SDS011;8853;52.552;13.356;2022-07-11T12:37:58;2.35;;;1.40;;
17472;SDS011;8853;52.552;13.356;2022-07-11T12:40:27;1.70;;;1.40;;
17472;SDS011;8853;52.552;13.356;2022-07-11T12:42:56;2.95;;;1.50;;
17472;SDS011;8853;52.552;13.356;2022-07-11T12:45:25;2.45;;;1.45;;
17472;SDS011;8853;52.552;13.356;2022-07-11T12:47:53;1.50;;;1.20;;
17472;SDS011;8853;52.552;13.356;2022-07-11T12:50:25;1.87;;;1.27;;
17472;SDS011;8853;52.552;13.356;2022-07-11T12:52:57;2.45;;;1.60;;
17472;SDS011;8853;52.552;13.356;2022-07-11T12:55:26;1.70;;;1.20;;
17472;SDS011;8853;52.552;13.356;2022-07-11T13:00:34;1.52;;;1.32;;
17472;SDS011;8853;52.552;13.356;2022-07-11T13:03:06;2.17;;;1.50;;
17472;SDS011;8853;52.552;13.356;2022-07-11T13:05:50;1.87;;;1.40;;
17472;SDS011;8853;52.552;13.356;2022-07-11T13:08:23;1.42;;;1.30;;
17472;SDS011;8853;52.552;13.356;2022-07-11T13:11:09;1.77;;;1.30;;
17472;SDS011;8853;52.552;13.356;2022-07-11T13:13:37;1.52;;;1.20;;
17472;SDS011;8853;52.552;13.356;2022-07-11T13:16:06;1.65;;;1.40;;
17472;SDS011;8853;52.552;13.356;2022-07-11T13:18:34;1.77;;;1.52;;
17472;SDS011;8853;52.552;13.356;2022-07-11T13:21:03;2.52;;;1.40;;
17472;SDS011;8853;52.552;13.356;2022-07-11T13:23:32;1.70;;;1.30;;
17472;SDS011;8853;52.552;13.356;2022-07-11T13:26:00;1.85;;;1.30;;
17472;SDS011;8853;52.552;13.356;2022-07-11T13:28:29;1.92;;;1.55;;
17472;SDS011;8853;52.552;13.356;2022-07-11T13:30:58;1.65;;;1.47;;
17472;SDS011;8853;52.552;13.356;2022-07-11T13:33:26;1.40;;;1.30;;
17472;SDS011;8853;52.552;13.356;2022-07-11T13:35:55;1.50;;;1.22;;
17472;SDS011;8853;52.552;13.356;2022-07-11T13:38:24;1.52;;;1.15;;
17472;SDS011;8853;52.552;13.356;2022-07-11T13:40:52;1.82;;;1.40;;
17472;SDS011;8853;52.552;13.356;2022-07-11T13:43:21;1.35;;;1.25;;
17472;SDS011;8853;52.552;13.356;2022-07-11T13:45:49;1.52;;;1.35;;
17472;SDS011;8853;52.552;13.356;2022-07-11T13:48:18;1.70;;;1.40;;
17472;SDS011;8853;52.552;13.356;2022-07-11T13:50:47;1.90;;;1.30;;
17472;SDS011;8853;52.552;13.356;2022-07-11T13:53:15;1.75;;;1.40;;
17472;SDS011;8853;52.552;13.356;2022-07-11T13:55:44;2.00;;;1.50;;
17472;SDS011;8853;52.552;13.356;2022-07-11T13:58:13;2.35;;;1.65;;
17472;SDS011;8853;52.552;13.356;2022-07-11T14:00:51;1.40;;;1.30;;
17472;SDS011;8853;52.552;13.356;2022-07-11T14:03:19;1.85;;;1.30;;
17472;SDS011;8853;52.552;13.356;2022-07-11T14:05:49;1.67;;;1.27;;
17472;SDS011;8853;52.552;13.356;2022-07-11T14:08:17;1.98;;;1.52;;
17472;SDS011;8853;52.552;13.356;2022-07-11T14:10:47;1.42;;;1.32;;
17472;SDS011;8853;52.552;13.356;2022-07-11T14:13:15;1.72;;;1.40;;
17472;SDS011;8853;52.552;13.356;2022-07-11T14:15:44;1.42;;;1.00;;
17472;SDS011;8853;52.552;13.356;2022-07-11T14:18:13;1.50;;;1.27;;
17472;SDS011;8853;52.552;13.356;2022-07-11T14:20:42;2.17;;;1.30;;
17472;SDS011;8853;52.552;13.356;2022-07-11T14:23:11;1.32;;;1.17;;
17472;SDS011;8853;52.552;13.356;2022-07-11T14:25:42;1.27;;;1.10;;
17472;SDS011;8853;52.552;13.356;2022-07-11T14:28:11;1.90;;;1.40;;
17472;SDS011;8853;52.552;13.356;2022-07-11T14:30:40;1.90;;;1.60;;
17472;SDS011;8853;52.552;13.356;2022-07-11T14:33:09;1.70;;;1.30;;
17472;SDS011;8853;52.552;13.356;2022-07-11T14:35:38;1.25;;;1.15;;
17472;SDS011;8853;52.552;13.356;2022-07-11T14:38:07;1.47;;;1.27;;
17472;SDS011;8853;52.552;13.356;2022-07-11T14:40:36;1.65;;;1.20;;
17472;SDS011;8853;52.552;13.356;2022-07-11T14:43:04;1.50;;;1.32;;
17472;SDS011;8853;52.552;13.356;2022-07-11T14:45:36;1.65;;;1.20;;
17472;SDS011;8853;52.552;13.356;2022-07-11T14:48:06;1.30;;;1.20;;
17472;SDS011;8853;52.552;13.356;2022-07-11T14:50:34;1.75;;;1.30;;
17472;SDS011;8853;52.552;13.356;2022-07-11T14:53:03;1.57;;;1.20;;
17472;SDS011;8853;52.552;13.356;2022-07-11T14:55:31;1.25;;;1.10;;
17472;SDS011;8853;52.552;13.356;2022-07-11T14:58:00;1.92;;;1.20;;
17472;SDS011;8853;52.552;13.356;2022-07-11T15:00:29;1.10;;;1.00;;
17472;SDS011;8853;52.552;13.356;2022-07-11T15:02:58;1.52;;;1.20;;
17472;SDS011;8853;52.552;13.356;2022-07-11T15:05:44;1.90;;;1.20;;
17472;SDS011;8853;52.552;13.356;2022-07-11T15:08:13;1.32;;;1.17;;
17472;SDS011;8853;52.552;13.356;2022-07-11T15:11:01;1.40;;;1.15;;
17472;SDS011;8853;52.552;13.356;2022-07-11T15:13:49;1.10;;;0.80;;
17472;SDS011;8853;52.552;13.356;2022-07-11T15:16:17;1.42;;;1.20;;
17472;SDS011;8853;52.552;13.356;2022-07-11T15:18:47;1.17;;;1.05;;
17472;SDS011;8853;52.552;13.356;2022-07-11T15:21:15;1.50;;;1.12;;
17472;SDS011;8853;52.552;13.356;2022-07-11T15:23:44;1.87;;;1.40;;
17472;SDS011;8853;52.552;13.356;2022-07-11T15:26:13;2.30;;;1.20;;
17472;SDS011;8853;52.552;13.356;2022-07-11T15:28:41;1.30;;;1.20;;
17472;SDS011;8853;52.552;13.356;2022-07-11T15:31:10;1.22;;;1.12;;
17472;SDS011;8853;52.552;13.356;2022-07-11T15:33:42;1.15;;;1.05;;
17472;SDS011;8853;52.552;13.356;2022-07-11T15:36:14;1.20;;;1.10;;